• Join FlightAware (Why Join?)
  • Login
  • US Flag 
12:58AM EST


 

Airport Tracker/Info


-or-


 

Live Flight TrackerFlight Track Log ✈ N48VC ✈ 18-Jul-2013 ✈ KPDK - KFAY

Flight Track Log - Related Links

Times and Time Zones

All times are in EDT time to prevent confusion due to time zone crossing. See the N48VC flight status page for this flight to view local times or setup timezone preferences in your user account.

Time Position Orientation Groundspeed Altitude Reporting Facility
EDT Latitude Longitude Course Direction KTS MPH feet Rate Location/Type
01:25PM 33.9167 -84.2833 15° North 165 190 2,100  Level Atlanta TRACON
01:26PM 33.9667 -84.2667 15° North 207 238 2,900 842 Climbing Atlanta TRACON
01:27PM 34.0000 -84.2167 51° Northeast 237 273 3,700 1,650 Climbing Atlanta TRACON
01:28PM 33.9833 -84.1500 107° East 220 253 6,200 2,190 Climbing Atlanta TRACON
01:29PM 33.9667 -84.0667 104° East 217 250 8,300 1,723 Climbing Atlanta TRACON
01:31PM 33.9069 -83.8886 112° Southeast 265 305 12,000 1,782 Climbing Atlanta Center
01:32PM 33.9150 -83.8086 83° East 246 283 14,300 2,000 Climbing Atlanta Center
01:33PM 33.9294 -83.7283 78° East 240 276 16,000 1,650 Climbing Atlanta Center
01:34PM 33.9439 -83.6481 78° East 240 276 17,600 1,400 Climbing Atlanta Center
01:35PM 33.9625 -83.5656 75° East 240 276 18,800 1,100 Climbing Atlanta Center
01:36PM 33.9808 -83.4878 74° East 250 288 19,800 1,100 Climbing Atlanta Center
01:37PM 33.9992 -83.3972 76° East 263 303 21,000 1,250 Climbing Atlanta Center
01:38PM 34.0153 -83.3094 77° East 270 311 22,300 1,250 Climbing Atlanta Center
01:39PM 34.0356 -83.2142 76° East 276 318 23,500 1,250 Climbing Atlanta Center
01:40PM 34.0539 -83.1236 76° East 281 323 24,800 1,300 Climbing Atlanta Center
01:41PM 34.0719 -83.0356 76° East 275 316 26,100 1,100 Climbing Atlanta Center
01:42PM 34.0942 -82.9425 74° East 275 316 27,000 450 Climbing Atlanta Center
01:43PM 34.1139 -82.8319 78° East 287 330 27,000  Level Atlanta Center
01:44PM 34.1317 -82.7211 79° East 317 365 27,000  Level Atlanta Center
01:45PM 34.1553 -82.6106 75° East 328 377 27,000  Level Atlanta Center
01:46PM 34.1833 -82.4994 73° East 333 383 27,000  Level Atlanta Center
01:47PM 34.2069 -82.3886 76° East 333 383 27,000  Level Atlanta Center
01:48PM 34.2283 -82.2750 77° East 338 389 27,000  Level Atlanta Center
01:49PM 34.2494 -82.1617 77° East 338 389 27,000  Level Atlanta Center
01:50PM 34.2769 -82.0528 73° East 338 389 27,000  Level Atlanta Center
01:51PM 34.3022 -81.9392 75° East 338 389 27,000  Level Atlanta Center
01:52PM 34.3294 -81.8253 74° East 343 395 27,000  Level Atlanta Center
01:53PM 34.3567 -81.7139 73° East 343 395 27,000  Level Atlanta Center
01:54PM 34.3836 -81.6022 74° East 343 395 27,000  Level Atlanta Center
01:57PM 34.4383 -81.3569 75° East 341 392 27,000  Level Jacksonville Center
01:58PM 34.4642 -81.2481 74° East 341 392 27,000  Level Jacksonville Center
01:59PM 34.4917 -81.1317 74° East 341 392 27,000  Level Jacksonville Center
02:00PM 34.5172 -81.0203 74° East 341 392 27,000  Level Jacksonville Center
02:01PM 34.5428 -80.9089 74° East 343 395 27,000 -200 Level Jacksonville Center
02:02PM 34.5700 -80.7922 74° East 350 403 26,600 -500 Descending Jacksonville Center
02:03PM 34.6033 -80.6628 73° East 350 403 26,000 -550 Descending Jacksonville Center
02:04PM 34.6303 -80.5433 75° East 361 415 25,500 -550 Descending Jacksonville Center
02:05PM 34.6533 -80.4344 76° East 361 415 24,900 -800 Descending Jacksonville Center
02:06PM 34.6822 -80.3172 73° East 361 415 23,900 -1,000 Descending Jacksonville Center
02:07PM 34.7075 -80.1850 77° East 366 421 22,800 -1,000 Descending Washington Center
02:08PM 34.7308 -80.0650 77° East 383 441 21,800 -992 Descending Washington Center
02:09PM 34.7603 -79.9453 73° East 372 428 20,800 -1,091 Descending Washington Center
02:10PM 34.7850 -79.8328 75° East 360 414 19,600 -1,576 Descending Washington Center
02:11PM 34.8097 -79.7253 74° East 337 388 17,700 -2,017 Descending Washington Center
02:12PM 34.8344 -79.6128 75° East 315 362 15,600 -1,983 Descending Washington Center
02:13PM 34.8542 -79.5225 75° East 310 357 13,700 -2,050 Descending Washington Center
02:14PM 34.8764 -79.4172 76° East 293 337 11,500 -1,785 Descending Washington Center
02:15PM 34.8958 -79.3269 75° East 293 337 10,100 -793 Descending Washington Center
02:16PM 34.9258 -79.2397 67° East 293 337 9,900 -655 Descending Washington Center
02:17PM 34.9614 -79.1653 60° Northeast 269 310 8,800 -1,450 Descending Washington Center
02:18PM 34.9906 -79.0956 63° Northeast 249 287 7,000 -2,083 Descending Washington Center
02:19PM 35.0239 -79.0236 60° Northeast 235 270 4,600 -2,400 Descending Washington Center